Time;durP1;ratioP1;P1;durP2;ratioP2;P2;SDS_P1;SDS_P2;PMS_P1;PMS_P2;Temp;Humidity;BMP_temperature;BMP_pressure;BME280_temperature;BME280_humidity;BME280_pressure;Samples;Min_cycle;Max_cycle;Signal;HPM_P1;HPM_P2
2022/07/24 00:00:38;;;;;;;4.38;3.50;;;14.80;99.90;;;;;;5069388;28;20040;-81
2022/07/24 00:03:04;;;;;;;4.00;3.60;;;14.80;99.90;;;;;;5092955;28;20461;-81
2022/07/24 00:05:30;;;;;;;5.65;3.95;;;14.90;99.90;;;;;;5068255;27;20027;-81
2022/07/24 00:07:59;;;;;;;6.05;4.50;;;14.80;99.90;;;;;;5074274;28;20035;-81
2022/07/24 00:10:25;;;;;;;4.85;4.00;;;14.90;99.90;;;;;;5076821;27;20039;-81
2022/07/24 00:12:51;;;;;;;4.72;4.22;;;14.90;99.90;;;;;;5074170;28;20051;-81
2022/07/24 00:15:17;;;;;;;5.60;4.40;;;14.90;99.90;;;;;;5095549;27;20051;-81
2022/07/24 00:17:43;;;;;;;7.07;4.28;;;14.90;99.90;;;;;;5078733;27;20122;-81
2022/07/24 00:20:09;;;;;;;9.13;4.65;;;14.90;99.90;;;;;;5098476;27;20191;-81
2022/07/24 00:22:35;;;;;;;5.75;4.22;;;14.90;99.90;;;;;;5086363;28;20143;-81
2022/07/24 00:25:03;;;;;;;5.28;4.18;;;15.00;99.90;;;;;;5074306;27;20088;-81
2022/07/24 00:27:28;;;;;;;6.93;4.57;;;15.00;99.90;;;;;;5077603;28;20427;-81
2022/07/24 00:29:54;;;;;;;8.85;4.70;;;15.00;99.90;;;;;;5098521;28;20082;-81
2022/07/24 00:32:20;;;;;;;6.55;4.35;;;15.00;99.90;;;;;;5087033;28;20470;-81
2022/07/24 00:34:49;;;;;;;6.38;4.75;;;15.00;99.90;;;;;;5087960;28;20122;-81
2022/07/24 00:37:14;;;;;;;7.25;4.20;;;15.00;99.90;;;;;;5105303;28;20111;-81
2022/07/24 00:39:40;;;;;;;6.63;5.05;;;14.90;99.90;;;;;;5077147;28;20035;-81
2022/07/24 00:42:06;;;;;;;4.47;4.00;;;15.00;99.90;;;;;;5089841;28;20027;-81
2022/07/24 00:44:31;;;;;;;4.88;4.18;;;15.00;99.90;;;;;;5075516;28;20048;-81
2022/07/24 00:46:57;;;;;;;6.18;4.57;;;15.00;99.90;;;;;;5085810;28;20467;-81
2022/07/24 00:49:23;;;;;;;6.68;4.68;;;15.00;99.90;;;;;;5077246;28;20049;-81
2022/07/24 00:51:53;;;;;;;5.85;4.65;;;15.00;99.90;;;;;;5082397;28;20039;-81
2022/07/24 00:54:21;;;;;;;5.65;4.22;;;15.00;99.90;;;;;;5078989;28;20039;-81
2022/07/24 00:56:48;;;;;;;6.28;4.60;;;15.00;99.90;;;;;;5097299;28;20035;-80
2022/07/24 00:59:14;;;;;;;6.50;3.95;;;15.00;99.90;;;;;;5092344;28;20040;-81
2022/07/24 01:01:40;;;;;;;6.18;4.10;;;15.00;99.90;;;;;;5079634;28;20097;-81
2022/07/24 01:04:06;;;;;;;7.28;4.20;;;15.00;99.90;;;;;;5095459;27;20077;-81
2022/07/24 01:06:33;;;;;;;4.93;4.10;;;15.00;99.90;;;;;;5095035;28;20425;-81
2022/07/24 01:08:59;;;;;;;7.18;4.20;;;15.00;99.90;;;;;;5076181;27;20038;-81
2022/07/24 01:11:25;;;;;;;5.32;4.50;;;15.00;99.90;;;;;;5084553;27;20050;-81
2022/07/24 01:13:51;;;;;;;10.52;4.57;;;15.00;99.90;;;;;;5099841;27;20044;-81
2022/07/24 01:16:17;;;;;;;6.20;4.55;;;15.00;99.90;;;;;;5087658;27;20111;-91
2022/07/24 01:18:46;;;;;;;7.30;4.60;;;15.00;99.90;;;;;;5080857;28;20513;-88
2022/07/24 01:21:12;;;;;;;6.38;4.88;;;15.00;99.90;;;;;;5075120;27;20043;-90
2022/07/24 01:23:38;;;;;;;4.90;4.40;;;15.00;99.90;;;;;;5102929;27;20042;-90
2022/07/24 01:26:07;;;;;;;4.80;4.40;;;15.00;99.90;;;;;;5083862;27;20043;-90
2022/07/24 01:28:33;;;;;;;5.22;4.40;;;15.00;99.90;;;;;;5090043;27;20085;-90
2022/07/24 01:30:59;;;;;;;7.40;5.00;;;15.00;99.90;;;;;;5079361;28;20039;-90
2022/07/24 01:33:25;;;;;;;5.90;5.03;;;15.00;99.90;;;;;;5081182;28;20118;-90
2022/07/24 01:35:51;;;;;;;7.15;4.97;;;15.00;99.90;;;;;;5082031;27;20047;-89
2022/07/24 01:38:17;;;;;;;7.28;4.85;;;15.00;99.90;;;;;;5088518;27;20047;-90
2022/07/24 01:40:43;;;;;;;12.32;5.85;;;15.00;99.90;;;;;;5083969;27;20039;-90
2022/07/24 01:43:09;;;;;;;7.18;5.70;;;15.00;99.90;;;;;;5092003;27;20039;-90
2022/07/24 01:45:35;;;;;;;8.15;5.50;;;14.90;99.90;;;;;;5082528;27;20126;-90
2022/07/24 01:48:02;;;;;;;6.10;4.82;;;15.00;99.90;;;;;;5102460;27;20040;-90
2022/07/24 01:50:28;;;;;;;7.15;5.15;;;14.90;99.90;;;;;;5078491;27;20193;-90
2022/07/24 01:52:54;;;;;;;6.80;5.45;;;15.00;99.90;;;;;;5078408;27;20039;-88
2022/07/24 01:55:21;;;;;;;8.57;5.30;;;14.90;99.90;;;;;;5087948;27;20521;-89
2022/07/24 01:57:47;;;;;;;6.50;5.50;;;15.00;99.90;;;;;;5085072;27;20510;-90
2022/07/24 02:00:14;;;;;;;6.75;5.75;;;15.00;99.90;;;;;;5068363;27;20035;-90
2022/07/24 02:02:42;;;;;;;6.10;5.30;;;15.00;99.90;;;;;;5075093;27;20031;-81
2022/07/24 02:05:12;;;;;;;6.38;5.30;;;15.00;99.90;;;;;;5076207;27;20126;-81
2022/07/24 02:07:39;;;;;;;8.95;5.22;;;15.00;99.90;;;;;;5095685;27;20047;-81
2022/07/24 02:10:05;;;;;;;6.13;5.32;;;15.00;99.90;;;;;;5096903;28;20043;-81
2022/07/24 02:12:31;;;;;;;7.75;5.78;;;14.90;99.90;;;;;;5084102;27;20046;-81
2022/07/24 02:14:56;;;;;;;8.13;5.82;;;14.90;99.90;;;;;;5077569;28;20043;-81
2022/07/24 02:17:22;;;;;;;8.40;6.07;;;14.90;99.90;;;;;;5075135;27;20043;-81
2022/07/24 02:19:51;;;;;;;7.30;5.95;;;14.80;99.90;;;;;;5093659;27;20031;-81
2022/07/24 02:22:17;;;;;;;6.22;5.63;;;14.90;99.90;;;;;;5114500;27;20227;-80
2022/07/24 02:24:42;;;;;;;6.60;5.50;;;14.90;99.90;;;;;;5098648;27;20158;-81
2022/07/24 02:27:08;;;;;;;7.32;5.85;;;14.90;99.90;;;;;;5076257;27;20076;-80
2022/07/24 02:29:34;;;;;;;7.88;5.80;;;14.90;99.90;;;;;;5081696;27;20578;-81
2022/07/24 02:32:00;;;;;;;8.68;6.05;;;14.80;99.90;;;;;;5095952;27;20546;-80
2022/07/24 02:34:25;;;;;;;8.25;6.05;;;14.90;99.90;;;;;;5077043;27;20043;-81
2022/07/24 02:36:51;;;;;;;7.05;6.28;;;14.90;99.90;;;;;;5104733;27;20046;-81
2022/07/24 02:39:17;;;;;;;7.82;5.80;;;14.90;99.90;;;;;;5081108;27;20039;-81
2022/07/24 02:41:43;;;;;;;7.85;6.00;;;14.90;99.90;;;;;;5078284;28;20047;-81
2022/07/24 02:44:08;;;;;;;6.47;5.78;;;14.90;99.90;;;;;;5081205;27;20048;-81
2022/07/24 02:46:34;;;;;;;8.57;6.43;;;14.90;99.90;;;;;;5077612;27;20042;-81
2022/07/24 02:49:01;;;;;;;8.82;6.28;;;14.90;99.90;;;;;;5074216;28;20101;-81
2022/07/24 02:51:27;;;;;;;7.72;5.95;;;14.90;99.90;;;;;;5076023;27;20306;-81
2022/07/24 02:53:52;;;;;;;7.38;6.47;;;14.90;99.90;;;;;;5096257;27;20042;-81
2022/07/24 02:56:18;;;;;;;8.88;7.05;;;14.90;99.90;;;;;;5099126;27;20035;-81
2022/07/24 02:58:44;;;;;;;7.82;6.13;;;14.90;99.90;;;;;;5101668;27;20050;-81
2022/07/24 03:01:12;;;;;;;9.32;6.45;;;14.80;99.90;;;;;;5088150;27;20031;-81
2022/07/24 03:03:38;;;;;;;6.95;6.07;;;14.80;99.90;;;;;;5093343;27;20065;-81
2022/07/24 03:06:04;;;;;;;8.15;7.30;;;14.80;99.90;;;;;;5078278;27;20344;-81
2022/07/24 03:08:33;;;;;;;7.93;6.15;;;14.80;99.90;;;;;;5078773;27;20046;-81
2022/07/24 03:11:01;;;;;;;6.68;5.93;;;14.80;99.90;;;;;;5074819;28;20039;-81
2022/07/24 03:13:29;;;;;;;7.65;6.60;;;14.80;99.90;;;;;;5069169;27;20065;-81
2022/07/24 03:15:55;;;;;;;7.80;7.03;;;14.80;99.90;;;;;;5072553;28;20272;-80
2022/07/24 03:18:21;;;;;;;7.88;6.55;;;14.80;99.90;;;;;;5100356;27;20565;-81
2022/07/24 03:20:49;;;;;;;7.72;6.22;;;14.70;99.90;;;;;;5073684;27;20304;-81
2022/07/24 03:23:17;;;;;;;10.50;6.65;;;14.70;99.90;;;;;;5092178;28;20497;-81
2022/07/24 03:25:43;;;;;;;7.78;6.38;;;14.80;99.90;;;;;;5088713;28;20150;-81
2022/07/24 03:28:09;;;;;;;7.65;6.40;;;14.80;99.90;;;;;;5094481;27;20042;-81
2022/07/24 03:30:36;;;;;;;9.52;6.40;;;14.70;99.90;;;;;;5079559;27;20043;-81
2022/07/24 03:33:01;;;;;;;7.28;6.43;;;14.80;99.90;;;;;;5074810;28;20039;-80
2022/07/24 03:35:27;;;;;;;8.93;6.45;;;14.80;99.90;;;;;;5085123;28;20172;-81
2022/07/24 03:37:52;;;;;;;8.05;6.63;;;14.70;99.90;;;;;;5093788;27;20238;-80
2022/07/24 03:40:18;;;;;;;9.45;6.85;;;14.80;99.90;;;;;;5098932;27;20039;-81
2022/07/24 03:42:44;;;;;;;8.20;7.03;;;14.80;99.90;;;;;;5094565;27;20476;-80
2022/07/24 03:45:10;;;;;;;7.43;6.70;;;14.80;99.90;;;;;;5098597;27;20054;-81
2022/07/24 03:47:36;;;;;;;8.25;6.20;;;14.80;99.90;;;;;;5071231;27;20047;-81
2022/07/24 03:50:02;;;;;;;8.75;7.00;;;14.80;99.90;;;;;;5071766;27;20048;-81
2022/07/24 03:52:28;;;;;;;7.65;6.85;;;14.80;99.90;;;;;;5080616;27;20135;-80
2022/07/24 03:54:55;;;;;;;9.30;6.80;;;14.80;99.90;;;;;;5099584;27;20039;-81
2022/07/24 03:57:21;;;;;;;8.10;6.95;;;14.80;99.90;;;;;;5097894;27;20050;-81
2022/07/24 03:59:46;;;;;;;8.38;7.47;;;14.80;99.90;;;;;;5100432;27;20043;-81
2022/07/24 04:02:13;;;;;;;8.40;7.05;;;14.90;99.90;;;;;;5081425;28;20047;-81
2022/07/24 04:04:38;;;;;;;7.97;6.72;;;14.90;99.90;;;;;;5075151;28;20035;-80
2022/07/24 04:07:04;;;;;;;8.63;7.30;;;14.90;99.90;;;;;;5098730;27;20382;-81
2022/07/24 04:09:30;;;;;;;8.65;6.85;;;14.90;99.90;;;;;;5094091;28;20036;-81
2022/07/24 04:11:55;;;;;;;7.85;7.00;;;14.90;99.90;;;;;;5076725;27;20410;-81
2022/07/24 04:14:21;;;;;;;8.70;6.65;;;14.90;99.90;;;;;;5078725;27;20328;-81
2022/07/24 04:16:47;;;;;;;9.07;6.55;;;14.90;99.90;;;;;;5074743;28;20138;-80
2022/07/24 04:19:13;;;;;;;7.78;6.97;;;15.00;99.90;;;;;;5074327;28;20092;-81
2022/07/24 04:21:40;;;;;;;8.70;6.78;;;15.00;99.90;;;;;;5077729;28;20282;-81
2022/07/24 04:24:06;;;;;;;8.77;6.70;;;14.90;99.90;;;;;;5074165;27;20062;-81
2022/07/24 04:26:32;;;;;;;9.98;6.90;;;15.00;99.90;;;;;;5080916;28;20470;-81
2022/07/24 04:28:58;;;;;;;10.65;7.03;;;15.00;99.90;;;;;;5081326;27;20043;-80
2022/07/24 04:31:23;;;;;;;7.20;6.32;;;15.00;99.90;;;;;;5085922;28;20343;-81
2022/07/24 04:33:49;;;;;;;7.95;7.15;;;15.00;99.90;;;;;;5091637;28;20435;-81
2022/07/24 04:36:15;;;;;;;8.75;6.72;;;15.10;99.90;;;;;;5090076;28;20044;-81
2022/07/24 04:38:40;;;;;;;7.35;6.65;;;15.10;99.90;;;;;;5078287;27;20032;-81
2022/07/24 04:41:06;;;;;;;8.10;6.55;;;15.10;99.90;;;;;;5077328;27;20427;-80
2022/07/24 04:43:32;;;;;;;7.65;6.32;;;15.20;99.90;;;;;;5100767;27;20047;-80
2022/07/24 04:46:01;;;;;;;8.55;6.53;;;15.20;99.90;;;;;;5090790;27;20043;-80
2022/07/24 04:48:27;;;;;;;7.25;6.55;;;15.30;99.90;;;;;;5079496;27;20410;-81
2022/07/24 04:50:52;;;;;;;8.70;6.38;;;15.40;99.90;;;;;;5097933;27;20508;-81
2022/07/24 04:53:18;;;;;;;7.95;6.35;;;15.40;99.90;;;;;;5083760;27;20035;-81
2022/07/24 04:55:44;;;;;;;6.82;6.13;;;15.40;99.90;;;;;;5074164;27;20047;-81
2022/07/24 04:58:09;;;;;;;8.40;6.65;;;15.50;99.90;;;;;;5096544;27;20134;-80
2022/07/24 05:00:35;;;;;;;7.72;6.38;;;15.60;99.90;;;;;;5098598;27;20047;-80
2022/07/24 05:03:03;;;;;;;9.82;7.15;;;15.70;99.90;;;;;;5096672;28;20043;-80
2022/07/24 05:05:29;;;;;;;9.65;7.30;;;15.80;99.90;;;;;;5101862;27;20042;-81
2022/07/24 05:07:55;;;;;;;10.00;7.03;;;15.90;99.90;;;;;;5101327;27;20045;-80
2022/07/24 05:10:21;;;;;;;7.35;6.30;;;16.00;99.90;;;;;;5085293;27;20081;-80
2022/07/24 05:12:47;;;;;;;7.50;6.78;;;16.10;99.90;;;;;;5083492;27;20043;-80
2022/07/24 05:15:12;;;;;;;8.05;6.90;;;16.20;99.90;;;;;;5094122;27;20035;-80
2022/07/24 05:17:38;;;;;;;7.45;6.55;;;16.30;99.90;;;;;;5081381;27;20759;-80
2022/07/24 05:20:05;;;;;;;9.68;6.88;;;16.30;99.90;;;;;;5102165;27;20031;-80
2022/07/24 05:22:31;;;;;;;7.88;6.90;;;16.40;99.90;;;;;;5085971;27;20093;-81
2022/07/24 05:24:57;;;;;;;7.32;6.53;;;16.40;99.90;;;;;;5082328;27;20043;-80
2022/07/24 05:27:22;;;;;;;7.00;6.30;;;16.50;83.90;;;;;;5087496;27;20416;-80
2022/07/24 05:29:48;;;;;;;9.55;6.65;;;16.80;73.80;;;;;;5080845;27;20040;-81
2022/07/24 05:32:14;;;;;;;7.32;6.43;;;17.00;18.40;;;;;;5079812;27;20126;-80
2022/07/24 05:34:40;;;;;;;7.45;6.38;;;17.20;1.00;;;;;;5082129;27;20089;-80
2022/07/24 05:37:06;;;;;;;6.93;6.30;;;17.40;1.00;;;;;;5100240;27;20043;-81
2022/07/24 05:39:31;;;;;;;8.25;7.10;;;17.70;1.00;;;;;;5102047;27;20028;-80
2022/07/24 05:41:57;;;;;;;9.93;6.78;;;17.90;1.00;;;;;;5083693;27;20378;-81
2022/07/24 05:44:23;;;;;;;8.23;6.85;;;18.00;1.00;;;;;;5079254;27;20712;-81
2022/07/24 05:46:48;;;;;;;11.43;7.22;;;17.90;1.00;;;;;;5097881;27;20043;-80
2022/07/24 05:49:14;;;;;;;9.10;6.63;;;18.00;99.90;;;;;;5081113;27;20077;-80
2022/07/24 05:51:40;;;;;;;8.98;7.43;;;17.80;99.90;;;;;;5103243;27;20046;-81
2022/07/24 05:54:05;;;;;;;9.77;7.80;;;17.70;99.90;;;;;;5101737;27;20394;-81
2022/07/24 05:56:31;;;;;;;8.93;7.43;;;17.60;99.90;;;;;;5085449;27;20097;-80
2022/07/24 05:58:57;;;;;;;10.07;8.05;;;17.80;99.90;;;;;;5080777;27;20122;-81
2022/07/24 06:01:23;;;;;;;11.18;7.65;;;17.90;99.90;;;;;;5088052;27;20027;-80
2022/07/24 06:03:49;;;;;;;9.38;8.13;;;18.20;99.90;;;;;;5081948;27;20428;-80
2022/07/24 06:06:15;;;;;;;9.45;8.18;;;18.20;99.90;;;;;;5102994;27;20102;-81
2022/07/24 06:08:41;;;;;;;10.35;8.25;;;18.40;99.90;;;;;;5092299;27;20136;-81
2022/07/24 06:11:06;;;;;;;10.05;7.88;;;18.50;99.90;;;;;;5098588;27;20063;-80
2022/07/24 06:13:32;;;;;;;11.40;7.88;;;18.50;99.90;;;;;;5083577;27;20122;-81
2022/07/24 06:15:58;;;;;;;10.00;8.63;;;18.70;99.90;;;;;;5097351;27;20527;-80
2022/07/24 06:18:24;;;;;;;9.63;8.63;;;18.70;99.90;;;;;;5098875;27;20538;-80
2022/07/24 06:20:49;;;;;;;12.52;8.88;;;18.70;99.90;;;;;;5078705;27;20040;-81
2022/07/24 06:23:15;;;;;;;12.07;9.35;;;18.60;99.90;;;;;;5084489;27;20379;-81
2022/07/24 06:25:44;;;;;;;11.57;9.10;;;18.70;99.90;;;;;;5072530;28;20356;-81
2022/07/24 06:28:09;;;;;;;11.25;9.10;;;18.90;99.90;;;;;;5068201;27;20092;-81
2022/07/24 06:30:35;;;;;;;11.13;9.10;;;19.00;99.90;;;;;;5075317;27;20043;-81
2022/07/24 06:33:01;;;;;;;13.25;9.32;;;19.30;99.90;;;;;;5097198;27;20075;-81
2022/07/24 06:35:28;;;;;;;11.13;9.90;;;19.30;99.90;;;;;;5096776;27;20070;-81
2022/07/24 06:37:55;;;;;;;10.80;9.70;;;19.40;99.90;;;;;;5074185;27;20043;-81
2022/07/24 06:40:21;;;;;;;10.95;9.85;;;19.50;99.90;;;;;;5087682;27;20306;-81
2022/07/24 06:42:48;;;;;;;12.82;10.57;;;19.70;99.90;;;;;;5083271;27;20197;-81
2022/07/24 06:45:14;;;;;;;12.80;10.70;;;19.70;99.90;;;;;;5076758;27;20857;-81
2022/07/24 06:47:40;;;;;;;12.27;10.90;;;19.80;99.90;;;;;;5075612;28;20035;-81
2022/07/24 06:50:06;;;;;;;14.52;10.95;;;19.80;99.90;;;;;;5075733;27;20039;-80
2022/07/24 06:52:32;;;;;;;12.68;10.43;;;20.00;88.80;;;;;;5097817;27;20089;-81
2022/07/24 06:54:58;;;;;;;16.98;11.45;;;20.10;99.90;;;;;;5076893;27;20426;-80
2022/07/24 06:57:25;;;;;;;14.57;11.30;;;20.30;77.10;;;;;;5082296;27;20398;-81
2022/07/24 06:59:53;;;;;;;14.05;12.27;;;20.30;99.90;;;;;;5074837;27;20047;-80
2022/07/24 07:02:19;;;;;;;14.05;11.38;;;20.30;49.00;;;;;;5102015;27;20047;-81
2022/07/24 07:04:45;;;;;;;12.20;10.95;;;20.40;53.70;;;;;;5079038;27;20488;-80
2022/07/24 07:07:10;;;;;;;13.25;11.77;;;20.60;56.90;;;;;;5099074;27;20082;-80
2022/07/24 07:09:36;;;;;;;12.63;11.05;;;20.70;44.50;;;;;;5060951;28;20036;-81
2022/07/24 07:12:05;;;;;;;15.55;11.52;;;20.80;49.80;;;;;;5074652;27;20126;-80
2022/07/24 07:14:31;;;;;;;14.02;11.10;;;20.80;21.80;;;;;;5096222;27;20047;-81
2022/07/24 07:16:57;;;;;;;14.68;11.38;;;21.00;47.40;;;;;;5078546;27;20306;-81
2022/07/24 07:19:23;;;;;;;13.35;11.65;;;21.10;37.40;;;;;;5080788;27;20413;-81
2022/07/24 07:21:48;;;;;;;13.57;12.10;;;21.30;14.40;;;;;;5097750;27;20036;-81
2022/07/24 07:24:14;;;;;;;12.98;11.40;;;21.30;1.00;;;;;;5086765;27;20036;-81
2022/07/24 07:26:40;;;;;;;14.70;11.05;;;21.40;1.00;;;;;;5086290;27;20034;-81
2022/07/24 07:29:05;;;;;;;13.75;10.55;;;21.70;1.00;;;;;;5081614;27;20091;-80
2022/07/24 07:31:31;;;;;;;12.73;10.80;;;21.90;1.00;;;;;;5100699;27;20451;-81
2022/07/24 07:34:00;;;;;;;15.18;11.40;;;22.30;1.00;;;;;;5098085;28;20496;-81
2022/07/24 07:36:26;;;;;;;15.45;10.13;;;22.40;1.00;;;;;;5097001;27;20114;-81
2022/07/24 07:38:52;;;;;;;10.98;8.85;;;22.90;1.00;;;;;;5097082;27;20077;-80
2022/07/24 07:41:21;;;;;;;15.05;10.25;;;23.10;99.90;;;;;;5077060;27;20051;-81
2022/07/24 07:43:47;;;;;;;10.30;8.88;;;23.20;99.90;;;;;;5073366;27;20162;-81
2022/07/24 07:46:13;;;;;;;10.75;8.70;;;23.00;99.90;;;;;;5088822;28;20146;-80
2022/07/24 07:48:41;;;;;;;9.48;8.48;;;23.10;99.90;;;;;;5063190;27;20083;-81
2022/07/24 07:51:07;;;;;;;8.65;7.75;;;22.90;99.90;;;;;;5075003;27;20043;-81
2022/07/24 07:53:33;;;;;;;9.98;7.20;;;22.70;99.90;;;;;;5081234;27;20039;-81
2022/07/24 07:55:59;;;;;;;10.05;6.90;;;22.70;99.90;;;;;;5076024;27;20044;-81
2022/07/24 07:58:26;;;;;;;9.20;7.07;;;22.70;99.90;;;;;;5072352;27;20049;-81
2022/07/24 08:00:55;;;;;;;8.82;7.30;;;22.50;99.90;;;;;;5073648;28;20060;-81
2022/07/24 08:03:21;;;;;;;6.82;6.13;;;22.70;99.90;;;;;;5079383;27;20403;-81
2022/07/24 08:05:47;;;;;;;9.40;6.68;;;22.60;99.90;;;;;;5078328;27;20074;-81
2022/07/24 08:08:12;;;;;;;7.47;6.57;;;22.80;99.90;;;;;;5103383;27;20122;-81
2022/07/24 08:10:38;;;;;;;7.53;6.30;;;23.20;99.90;;;;;;5083319;27;20333;-81
2022/07/24 08:13:04;;;;;;;7.00;5.55;;;23.50;99.90;;;;;;5084314;28;20422;-81
2022/07/24 08:15:30;;;;;;;6.80;5.18;;;23.60;99.90;;;;;;5076073;28;20083;-81
2022/07/24 08:17:57;;;;;;;6.07;5.15;;;23.60;99.90;;;;;;5075777;27;20076;-81
2022/07/24 08:20:24;;;;;;;5.50;4.93;;;23.80;99.90;;;;;;5094962;27;20074;-81
2022/07/24 08:22:49;;;;;;;4.90;4.38;;;23.60;99.90;;;;;;5087555;28;20108;-81
2022/07/24 08:25:16;;;;;;;6.60;4.57;;;23.80;99.90;;;;;;5099351;27;20035;-81
2022/07/24 08:27:42;;;;;;;5.53;4.20;;;23.90;99.90;;;;;;5096961;27;20055;-81
2022/07/24 08:30:09;;;;;;;4.97;4.20;;;24.00;99.90;;;;;;5078015;28;20040;-81
2022/07/24 08:32:36;;;;;;;4.38;3.97;;;24.10;99.90;;;;;;5062564;28;20045;-81
2022/07/24 08:35:03;;;;;;;6.63;4.25;;;24.20;99.90;;;;;;5081517;28;20157;-82
2022/07/24 08:37:28;;;;;;;4.95;4.07;;;24.30;99.90;;;;;;5081328;28;20110;-81
2022/07/24 08:39:54;;;;;;;4.88;3.90;;;24.60;99.90;;;;;;5095647;28;20567;-81
2022/07/24 08:42:20;;;;;;;4.43;4.03;;;24.60;99.90;;;;;;5098279;28;20670;-81
2022/07/24 08:44:47;;;;;;;4.25;3.42;;;24.90;99.90;;;;;;5096261;28;20141;-81
2022/07/24 08:47:15;;;;;;;6.72;3.95;;;24.60;99.90;;;;;;5093369;28;20039;-81
2022/07/24 08:49:46;;;;;;;5.45;3.97;;;24.50;99.90;;;;;;5092425;28;20031;-81
2022/07/24 08:52:14;;;;;;;4.72;3.70;;;24.60;99.90;;;;;;5089431;28;20050;-81
2022/07/24 08:54:40;;;;;;;4.10;3.58;;;24.90;99.90;;;;;;5070499;28;20065;-82
2022/07/24 08:57:05;;;;;;;5.22;3.88;;;25.10;99.90;;;;;;5098622;28;20032;-81
2022/07/24 08:59:32;;;;;;;4.45;3.60;;;25.20;99.90;;;;;;5093962;28;20040;-81
2022/07/24 09:01:58;;;;;;;5.07;4.20;;;25.00;99.90;;;;;;5078871;28;20055;-81
2022/07/24 09:05:00;;;;;;;5.78;4.10;;;25.00;99.90;;;;;;5073855;28;20043;-81
2022/07/24 09:07:29;;;;;;;5.15;4.65;;;25.40;99.90;;;;;;5049963;28;20067;-81
2022/07/24 09:10:00;;;;;;;5.78;4.07;;;25.30;99.90;;;;;;5077371;28;20084;-81
2022/07/24 09:12:34;;;;;;;5.63;4.03;;;25.30;99.90;;;;;;5098451;28;20040;-81
2022/07/24 09:15:09;;;;;;;5.63;3.50;;;25.20;99.90;;;;;;5095330;28;20035;-81
2022/07/24 09:17:35;;;;;;;4.78;3.90;;;25.40;99.90;;;;;;5088616;28;20051;-81
2022/07/24 09:20:08;;;;;;;4.28;3.33;;;25.10;99.90;;;;;;5091852;28;20051;-81
2022/07/24 09:22:41;;;;;;;4.07;3.22;;;24.90;99.90;;;;;;5092765;28;20046;-81
2022/07/24 09:25:15;;;;;;;5.30;3.30;;;25.10;99.90;;;;;;5095578;27;20212;-81
2022/07/24 09:27:58;;;;;;;4.70;3.63;;;25.10;99.90;;;;;;5098408;27;20061;-81
2022/07/24 09:30:36;;;;;;;4.90;3.80;;;25.10;99.90;;;;;;5087375;28;20035;-82
2022/07/24 09:33:02;;;;;;;4.40;3.67;;;25.80;99.90;;;;;;5096161;27;20043;-81
2022/07/24 09:35:37;;;;;;;5.32;3.40;;;25.60;99.90;;;;;;5093934;27;20036;-82
2022/07/24 09:38:05;;;;;;;4.70;3.35;;;25.50;99.90;;;;;;5101822;27;20074;-81
2022/07/24 09:40:33;;;;;;;4.68;3.55;;;25.30;99.90;;;;;;5078905;27;20047;-81
2022/07/24 09:43:38;;;;;;;4.97;3.53;;;25.40;99.90;;;;;;5080119;27;20058;-81
2022/07/24 09:46:07;;;;;;;5.03;3.58;;;25.90;99.90;;;;;;5027763;28;20120;-81
2022/07/24 09:48:52;;;;;;;6.43;3.50;;;25.90;99.90;;;;;;5016807;28;20152;-81
2022/07/24 09:51:21;;;;;;;5.68;4.00;;;26.50;99.90;;;;;;5049192;27;20132;-81
2022/07/24 09:54:01;;;;;;;5.40;3.60;;;26.30;99.90;;;;;;5089983;27;20089;-81
2022/07/24 09:56:27;;;;;;;4.15;3.10;;;26.40;99.90;;;;;;5090630;27;20126;-81
2022/07/24 09:58:55;;;;;;;6.95;3.40;;;26.30;99.90;;;;;;5098277;27;20039;-81
2022/07/24 10:01:23;;;;;;;7.40;3.50;;;26.60;99.90;;;;;;5083691;27;20055;-81
2022/07/24 10:03:53;;;;;;;4.53;3.38;;;26.70;99.90;;;;;;5090521;27;20046;-81
2022/07/24 10:06:25;;;;;;;3.90;3.30;;;26.60;99.90;;;;;;5085780;27;20062;-82
2022/07/24 10:08:52;;;;;;;3.53;3.03;;;26.70;99.90;;;;;;5102252;27;20039;-81
2022/07/24 10:11:18;;;;;;;5.32;3.05;;;26.70;99.90;;;;;;5100127;27;20052;-82
2022/07/24 10:13:44;;;;;;;4.55;2.90;;;26.60;99.90;;;;;;5089230;27;20039;-81
2022/07/24 10:16:13;;;;;;;6.68;3.08;;;26.60;99.90;;;;;;5078060;27;20039;-81
2022/07/24 10:18:52;;;;;;;6.38;3.00;;;26.70;99.90;;;;;;5099839;27;20040;-82
2022/07/24 10:21:37;;;;;;;4.35;2.95;;;27.20;99.90;;;;;;5079204;27;20043;-81
2022/07/24 10:24:03;;;;;;;4.05;2.70;;;27.30;99.90;;;;;;5076464;27;20344;-81
2022/07/24 10:26:40;;;;;;;3.92;2.85;;;27.40;99.90;;;;;;5090099;28;20047;-81
2022/07/24 10:29:17;;;;;;;4.45;2.67;;;27.30;99.90;;;;;;5097014;27;20143;-81
2022/07/24 10:31:52;;;;;;;4.25;3.00;;;28.00;99.90;;;;;;5064488;27;20047;-81
2022/07/24 10:34:23;;;;;;;3.83;2.90;;;27.60;99.90;;;;;;5100058;27;20051;-81
2022/07/24 10:37:21;;;;;;;3.25;2.90;;;27.70;99.90;;;;;;5081118;28;20047;-81
2022/07/24 10:39:59;;;;;;;3.00;2.67;;;27.60;99.90;;;;;;5100529;27;20486;-81
2022/07/24 10:42:25;;;;;;;4.82;2.70;;;27.40;99.90;;;;;;5078169;28;20040;-81
2022/07/24 10:45:17;;;;;;;3.33;3.00;;;27.20;99.90;;;;;;5076345;28;20138;-81
2022/07/24 10:47:43;;;;;;;3.90;2.60;;;26.90;99.90;;;;;;5090638;28;20048;-82
2022/07/24 10:50:09;;;;;;;5.00;2.90;;;27.20;99.90;;;;;;5074957;28;20251;-82
2022/07/24 10:52:40;;;;;;;3.30;2.88;;;26.70;99.90;;;;;;5071393;28;20039;-82
2022/07/24 10:55:33;;;;;;;7.22;2.63;;;26.80;99.90;;;;;;5076377;28;20040;-81
2022/07/24 10:58:14;;;;;;;3.75;2.78;;;26.50;99.90;;;;;;5099635;28;20379;-81
2022/07/24 11:00:48;;;;;;;3.25;2.80;;;26.50;99.90;;;;;;5086090;28;20040;-82
2022/07/24 11:03:24;;;;;;;3.83;2.90;;;26.50;99.90;;;;;;5077544;28;20062;-82
2022/07/24 11:06:06;;;;;;;3.50;2.80;;;26.80;99.90;;;;;;5068383;28;20055;-82
2022/07/24 11:08:45;;;;;;;4.18;3.10;;;27.30;99.90;;;;;;5090001;28;20048;-82
2022/07/24 11:11:14;;;;;;;2.72;2.53;;;27.70;99.90;;;;;;5096310;28;20544;-81
2022/07/24 11:13:43;;;;;;;4.05;2.78;;;28.50;99.90;;;;;;5095257;28;20491;-82
2022/07/24 11:16:14;;;;;;;4.75;2.70;;;28.30;99.90;;;;;;5094925;28;20130;-81
2022/07/24 11:18:41;;;;;;;3.13;2.78;;;28.40;99.90;;;;;;5085819;28;20126;-82
2022/07/24 11:21:08;;;;;;;4.68;3.00;;;28.20;99.90;;;;;;5089703;28;20495;-82
2022/07/24 11:23:34;;;;;;;5.32;2.60;;;28.20;99.90;;;;;;5103064;28;20042;-81
2022/07/24 11:26:32;;;;;;;3.40;2.72;;;28.10;99.90;;;;;;5090914;28;20044;-81
2022/07/24 11:29:22;;;;;;;3.97;2.78;;;28.10;99.90;;;;;;5091788;28;20498;-82
2022/07/24 11:31:50;;;;;;;3.85;2.95;;;28.10;99.90;;;;;;5093364;28;20142;-82
2022/07/24 11:34:16;;;;;;;3.13;2.80;;;28.30;99.90;;;;;;5099042;28;20052;-81
2022/07/24 11:36:47;;;;;;;4.40;2.72;;;28.40;99.90;;;;;;5072991;28;20055;-82
2022/07/24 11:39:14;;;;;;;3.78;2.70;;;28.20;99.90;;;;;;5094411;28;20044;-82
2022/07/24 11:41:54;;;;;;;3.83;2.63;;;28.70;99.90;;;;;;5076033;28;20048;-82
2022/07/24 11:44:33;;;;;;;3.63;2.80;;;28.80;99.90;;;;;;5091158;28;20060;-82
2022/07/24 11:47:04;;;;;;;4.80;2.80;;;28.60;99.90;;;;;;5087761;28;20071;-82
2022/07/24 11:49:30;;;;;;;3.95;2.50;;;28.40;99.90;;;;;;5083720;28;20040;-81
2022/07/24 11:51:56;;;;;;;6.70;2.80;;;28.70;99.90;;;;;;5093897;28;20044;-82
2022/07/24 11:54:25;;;;;;;3.97;2.55;;;29.10;99.90;;;;;;5094793;28;20043;-82
2022/07/24 11:56:52;;;;;;;2.78;2.58;;;28.50;99.90;;;;;;5097188;28;20047;-81
2022/07/24 11:59:46;;;;;;;4.57;2.70;;;28.50;99.90;;;;;;5087618;28;20067;-82
2022/07/24 12:02:12;;;;;;;4.90;2.80;;;28.60;99.90;;;;;;5075439;28;20086;-82
2022/07/24 12:04:39;;;;;;;4.47;2.80;;;28.50;99.90;;;;;;5074061;28;20051;-82
2022/07/24 12:07:12;;;;;;;4.57;2.97;;;28.70;99.90;;;;;;5076702;28;20116;-82
2022/07/24 12:09:48;;;;;;;4.93;2.65;;;29.00;99.90;;;;;;5086614;28;20040;-82
2022/07/24 12:12:25;;;;;;;3.85;2.90;;;29.40;99.90;;;;;;5089695;28;20138;-82
2022/07/24 12:15:04;;;;;;;3.00;2.67;;;29.30;99.90;;;;;;5073419;28;20573;-82
2022/07/24 12:17:32;;;;;;;3.35;2.67;;;29.30;99.90;;;;;;5090776;28;20093;-82
2022/07/24 12:19:59;;;;;;;3.67;2.50;;;29.40;99.90;;;;;;5091867;28;20122;-82
2022/07/24 12:22:26;;;;;;;3.78;2.63;;;29.40;99.90;;;;;;5090728;28;20032;-82
2022/07/24 12:24:56;;;;;;;3.08;2.78;;;29.30;99.90;;;;;;5091008;28;20470;-82
2022/07/24 12:27:37;;;;;;;2.90;2.60;;;28.80;96.60;;;;;;5076161;28;20153;-83
2022/07/24 12:30:16;;;;;;;4.00;2.83;;;28.60;99.00;;;;;;5068792;28;20580;-83
2022/07/24 12:32:54;;;;;;;3.25;2.75;;;29.20;99.00;;;;;;5096873;28;20108;-82
2022/07/24 12:35:20;;;;;;;3.53;2.42;;;29.60;99.90;;;;;;5077918;28;20722;-82
2022/07/24 12:37:45;;;;;;;3.65;2.70;;;29.80;99.90;;;;;;5076418;28;20048;-82
2022/07/24 12:40:27;;;;;;;3.92;2.63;;;29.80;93.50;;;;;;5058832;28;20480;-82
2022/07/24 12:43:08;;;;;;;4.00;2.45;;;29.70;97.30;;;;;;5092371;28;20059;-82
2022/07/24 12:45:34;;;;;;;7.10;2.50;;;30.20;86.00;;;;;;5085615;28;20310;-82
2022/07/24 12:48:16;;;;;;;3.45;2.70;;;29.70;75.10;;;;;;5075836;28;20356;-83
2022/07/24 12:50:58;;;;;;;3.00;2.60;;;29.40;85.40;;;;;;5089863;28;20043;-83